Latest Weather Observations for Townsville

IDQ60801

Issued at 10:05 pm EST Monday 24 November 2014 (issued every 30 minutes, with the page automatically refreshed every 10 minutes)

About weather observations | Map of weather stations | Latest weather observations for QLD | Other Formats
Station Details ID: 032040 Name: TOWNSVILLE AERO Lat: -19.25 Lon: 146.77 Height: 4.34 m
Data from the previous 72 hours. | See also: Recent months at Townsville
Date/Time
EST
Temp
°C
App
Temp
°C
Dew
Point
Rel
Hum
%
Delta-T
°C
Wind Press
QNH
hPa
Press
MSL
hPa
Rain
since 9 am
mm
Dir
 
Spd
km/h
Gust
km/h
Spd
kts
Gust
kts
24/10:00pm 27.0 27.0 20.9 69 4.0 NE 22 28 12 15 1013.6 - 0.0
24/09:30pm 27.2 28.1 22.0 73 3.5 NE 20 26 11 14 1013.5 - 0.0
24/09:00pm 27.1 28.7 22.2 74 3.3 NE 17 24 9 13 1013.2 1013.1 0.0
24/08:30pm 27.1 28.0 21.9 73 3.5 NE 20 28 11 15 1013.0 - 0.0
24/08:00pm 27.2 27.6 21.8 72 3.6 NE 22 26 12 14 1012.8 - 0.0
24/07:30pm 27.2 28.1 21.5 71 3.8 NE 19 26 10 14 1012.5 - 0.0
24/07:00pm 27.3 27.5 21.4 70 3.9 ENE 22 30 12 16 1012.0 - 0.0
24/06:30pm 27.5 27.3 22.0 72 3.7 NE 26 32 14 17 1011.7 - 0.0
24/06:00pm 27.9 28.1 22.1 70 3.9 ENE 24 30 13 16 1011.4 1011.3 0.0
24/05:30pm 28.7 27.6 21.0 63 5.1 ENE 28 33 15 18 1011.0 - 0.0
24/05:00pm 29.2 28.7 21.4 63 5.2 NE 26 33 14 18 1010.9 - 0.0
24/04:30pm 28.8 28.0 21.6 65 4.8 ENE 28 35 15 19 1010.8 - 0.0
24/04:00pm 29.6 28.0 21.6 62 5.4 ENE 32 37 17 20 1010.7 - 0.0
24/03:30pm 29.8 28.0 21.6 61 5.5 ENE 33 39 18 21 1011.0 - 0.0
24/03:00pm 30.8 29.1 21.4 57 6.3 ENE 32 37 17 20 1011.3 1011.2 0.0
24/02:30pm 30.4 29.1 22.1 61 5.6 NE 32 37 17 20 1011.6 - 0.0
24/02:00pm 31.2 29.8 21.9 57 6.3 ENE 32 41 17 22 1011.9 - 0.0
24/01:30pm 30.5 29.0 21.8 59 5.9 ENE 32 39 17 21 1012.1 - 0.0
24/01:00pm 30.6 29.1 21.7 59 6.0 NE 32 41 17 22 1012.5 - 0.0
24/12:30pm 31.4 30.4 22.0 57 6.4 ENE 30 37 16 20 1012.7 - 0.0
24/12:00pm 30.4 28.8 21.6 59 5.9 NE 32 37 17 20 1013.0 1012.9 0.0
24/11:30am 30.6 29.6 21.9 59 5.9 ENE 30 41 16 22 1013.4 - 0.0
24/11:00am 30.4 29.5 21.5 59 6.0 ENE 28 35 15 19 1013.8 - 0.0
24/10:30am 30.7 30.0 21.8 59 6.0 ENE 28 37 15 20 1013.9 - 0.0
24/10:00am 30.4 29.8 22.0 60 5.7 ENE 28 37 15 20 1014.1 - 0.0
24/09:30am 30.6 29.8 21.7 59 6.0 ENE 28 33 15 18 1014.2 - 0.0
24/09:00am 30.1 29.2 21.5 60 5.8 E 28 35 15 19 1014.3 1014.2 0.2
24/08:30am 28.5 28.5 22.4 69 4.1 ENE 26 33 14 18 1014.2 - 0.2
24/08:00am 28.9 29.1 22.1 66 4.6 E 24 30 13 16 1013.9 - 0.2
24/07:30am 29.0 29.4 22.4 67 4.5 E 24 30 13 16 1013.8 - 0.2
24/07:00am 27.3 27.7 22.4 74 3.3 E 24 30 13 16 1013.6 - 0.2
24/06:30am 26.8 28.7 22.7 78 2.8 E 17 22 9 12 1013.3 - 0.2
24/06:00am 25.7 27.5 23.2 86 1.7 E 19 28 10 15 1012.8 1012.7 0.2
24/05:38am 25.3 27.1 23.2 88 1.4 E 19 24 10 13 1012.6 - 0.2
24/05:30am 25.1 26.4 23.3 90 1.2 E 22 28 12 15 1012.6 - 0.0
24/05:06am 26.6 28.6 22.9 80 2.5 ENE 17 24 9 13 1012.5 - 0.0
24/05:00am 26.4 28.0 22.9 81 2.4 ENE 19 24 10 13 1012.5 - 0.0
24/04:30am 26.3 28.2 22.1 77 2.8 ENE 15 22 8 12 1012.7 - 0.0
24/04:00am 26.5 28.6 22.5 78 2.7 ENE 15 22 8 12 1012.6 - 0.0
24/03:30am 26.4 28.0 22.2 78 2.8 ENE 17 22 9 12 1012.6 - 0.0
24/03:00am 26.5 28.0 22.0 76 3.0 E 17 24 9 13 1012.6 1012.5 0.0
24/02:30am 26.6 27.3 22.3 77 2.9 ENE 22 30 12 16 1012.8 - 0.0
24/02:00am 26.5 28.2 22.3 78 2.8 ENE 17 24 9 13 1012.8 - 0.0
24/01:30am 26.5 27.9 22.5 78 2.7 ENE 19 26 10 14 1013.1 - 0.0
24/01:00am 26.6 27.9 22.3 77 2.9 ENE 19 24 10 13 1013.6 - 0.0
24/12:30am 26.7 28.0 22.6 78 2.8 ENE 20 26 11 14 1014.0 - 0.0
24/12:00am 26.9 27.9 21.8 73 3.4 ENE 19 26 10 14 1014.4 1014.3 0.0
 
Date/Time
EST
Temp
°C
App
Temp
°C
Dew
Point
Rel
Hum
%
Delta-T
°C
Wind Press
QNH
hPa
Press
MSL
hPa
Rain
since 9 am
mm
Dir
 
Spd
km/h
Gust
km/h
Spd
kts
Gust
kts
23/11:30pm 26.8 27.5 22.3 76 3.0 ENE 22 28 12 15 1014.6 - 0.0
23/11:00pm 26.8 27.5 22.3 76 3.0 ENE 22 28 12 15 1014.7 - 0.0
23/10:30pm 26.7 26.9 21.4 72 3.5 ENE 22 28 12 15 1014.8 - 0.0
23/10:00pm 26.8 27.8 22.2 76 3.1 ENE 20 26 11 14 1014.5 - 0.0
23/09:30pm 26.8 28.1 22.3 76 3.0 ENE 19 28 10 15 1014.4 - 0.0
23/09:00pm 27.0 28.0 22.2 75 3.2 ENE 20 28 11 15 1014.1 1014.0 0.0
23/08:30pm 27.0 28.0 22.2 75 3.2 ENE 20 26 11 14 1013.8 - 0.0
23/08:00pm 27.0 28.2 22.2 75 3.2 ENE 19 24 10 13 1013.3 - 0.0
23/07:30pm 27.0 28.7 22.4 76 3.1 ENE 17 24 9 13 1013.1 - 0.0
23/07:00pm 27.1 27.9 22.4 75 3.2 ENE 22 28 12 15 1012.6 - 0.0
23/06:30pm 27.3 28.3 22.1 73 3.5 NE 20 28 11 15 1012.4 - 0.0
23/06:00pm 27.5 28.1 22.1 72 3.6 ENE 22 30 12 16 1012.2 1012.1 0.0
23/05:30pm 28.2 28.4 22.1 69 4.1 ENE 24 32 13 17 1012.3 - 0.0
23/05:00pm 28.6 27.5 21.7 66 4.6 ENE 30 37 16 20 1012.3 - 0.0
23/04:30pm 29.2 28.6 21.9 64 4.9 ENE 28 35 15 19 1012.2 - 0.0
23/04:00pm 29.2 28.4 21.6 63 5.1 ENE 28 35 15 19 1012.3 - 0.0
23/03:30pm 30.5 29.1 21.1 57 6.3 ENE 30 37 16 20 1012.4 - 0.0
23/03:00pm 30.2 29.0 21.6 60 5.8 ENE 30 35 16 19 1012.6 1012.5 0.0
23/02:30pm 30.2 28.5 21.7 60 5.7 ENE 33 39 18 21 1012.7 - 0.0
23/02:00pm 30.6 28.7 21.4 58 6.2 NE 33 41 18 22 1012.9 - 0.0
23/01:30pm 31.2 29.3 20.9 54 6.9 ENE 32 39 17 21 1013.3 - 0.0
23/01:00pm 30.9 30.0 21.5 57 6.3 NE 28 37 15 20 1013.7 - 0.0
23/12:30pm 30.6 30.3 21.9 59 5.9 NE 26 33 14 18 1014.0 - 0.0
23/12:00pm 30.8 30.2 21.3 57 6.4 NE 26 33 14 18 1014.4 1014.3 0.0
23/11:30am 30.9 29.4 20.3 53 7.0 ENE 28 33 15 18 1014.9 - 0.0
23/11:00am 30.4 29.8 20.6 55 6.5 ENE 24 30 13 16 1015.1 - 0.0
23/10:30am 30.3 29.5 20.8 56 6.3 ENE 26 33 14 18 1015.3 - 0.0
23/10:00am 29.7 29.1 21.2 60 5.7 ENE 26 32 14 17 1015.4 - 0.0
23/09:30am 29.5 29.9 21.8 63 5.2 ENE 22 30 12 16 1015.4 - 0.0
23/09:00am 29.1 30.0 21.5 63 5.1 ENE 19 26 10 14 1015.3 1015.2 0.0
23/08:30am 29.5 29.7 21.4 61 5.4 ENE 22 28 12 15 1015.3 - 0.0
23/08:00am 27.8 28.8 21.8 70 4.0 ENE 19 24 10 13 1015.2 - 0.0
23/07:30am 28.2 29.5 21.6 67 4.4 NE 17 22 9 12 1015.0 - 0.0
23/07:00am 27.7 29.4 21.6 69 4.1 ENE 15 20 8 11 1014.6 - 0.0
23/06:30am 27.1 28.7 21.5 71 3.7 ENE 15 20 8 11 1014.2 - 0.0
23/06:00am 26.1 28.2 21.7 77 2.9 ENE 13 15 7 8 1013.8 1013.7 0.0
23/05:30am 25.7 28.7 22.0 80 2.5 N 9 15 5 8 1013.3 - 0.0
23/05:00am 25.4 27.6 21.8 80 2.4 NNE 13 15 7 8 1013.1 - 0.0
23/04:30am 25.9 28.0 21.7 77 2.8 NNE 13 19 7 10 1012.9 - 0.0
23/04:00am 25.5 27.7 21.9 80 2.4 NE 13 17 7 9 1012.7 - 0.0
23/03:30am 26.0 27.9 22.0 78 2.7 NNE 15 19 8 10 1012.7 - 0.0
23/03:00am 25.9 27.3 21.9 78 2.7 NE 17 20 9 11 1012.6 1012.5 0.0
23/02:30am 25.7 27.2 22.0 80 2.5 NNE 17 20 9 11 1012.7 - 0.0
23/02:00am 26.0 27.5 22.0 78 2.7 NNE 17 24 9 13 1012.9 - 0.0
23/01:30am 26.3 27.6 22.3 78 2.7 NE 19 20 10 11 1013.0 - 0.0
23/01:00am 26.2 27.8 22.2 78 2.7 NE 17 22 9 12 1013.4 - 0.0
23/12:30am 26.1 28.0 22.1 78 2.7 NNE 15 17 8 9 1013.9 - 0.0
23/12:00am 26.2 27.7 22.0 77 2.8 NNE 17 19 9 10 1014.2 1014.1 0.0
 
Date/Time
EST
Temp
°C
App
Temp
°C
Dew
Point
Rel
Hum
%
Delta-T
°C
Wind Press
QNH
hPa
Press
MSL
hPa
Rain
since 9 am
mm
Dir
 
Spd
km/h
Gust
km/h
Spd
kts
Gust
kts
22/11:30pm 26.5 28.9 22.2 77 2.9 NNE 13 19 7 10 1014.2 - 0.0
22/11:00pm 25.9 28.4 21.7 77 2.8 NE 11 15 6 8 1014.3 - 0.0
22/10:30pm 26.2 28.1 22.0 77 2.8 NE 15 19 8 10 1014.5 - 0.0
22/10:00pm 26.5 27.9 21.9 76 3.1 NE 17 22 9 12 1014.1 - 0.0
22/09:30pm 26.5 28.2 21.7 75 3.2 NE 15 19 8 10 1014.0 - 0.0
22/09:00pm 26.5 28.8 22.0 76 3.0 ENE 13 17 7 9 1013.7 1013.6 0.0
22/08:30pm 26.3 29.1 21.6 75 3.1 NE 9 15 5 8 1013.4 - 0.0
22/08:00pm 26.7 28.6 21.4 72 3.5 NE 13 15 7 8 1013.1 - 0.0
22/07:30pm 26.8 28.4 21.4 72 3.6 ENE 15 17 8 9 1012.7 - 0.0
22/07:00pm 27.0 28.0 21.1 70 3.9 NE 17 22 9 12 1012.3 - 0.0
22/06:30pm 27.2 28.0 21.3 70 3.9 ENE 19 26 10 14 1012.2 - 0.0
22/06:00pm 27.5 27.4 21.5 70 4.0 ENE 24 30 13 16 1012.1 1012.0 0.0
22/05:30pm 28.3 27.6 21.1 65 4.8 ENE 26 32 14 17 1011.8 - 0.0
22/05:00pm 28.7 27.9 21.7 66 4.7 ENE 28 33 15 18 1011.5 - 0.0
22/04:30pm 29.2 28.4 21.6 63 5.1 ENE 28 35 15 19 1011.4 - 0.0
22/04:00pm 29.6 28.1 21.0 60 5.7 ENE 30 35 16 19 1011.4 - 0.0
22/03:30pm 29.8 28.6 21.6 61 5.5 ENE 30 37 16 20 1011.3 - 0.0
22/03:00pm 30.2 28.6 21.6 60 5.8 ENE 32 35 17 19 1011.5 1011.4 0.0
22/02:30pm 30.5 29.3 21.6 59 6.0 NE 30 35 16 19 1011.9 - 0.0
22/02:00pm 30.5 30.2 21.8 59 5.9 NE 26 32 14 17 1012.2 - 0.0
22/01:30pm 30.5 30.6 21.9 60 5.8 ENE 24 33 13 18 1012.6 - 0.0
22/01:00pm 31.5 31.4 21.4 55 6.8 ENE 24 33 13 18 1013.0 - 0.0
22/12:30pm 30.0 30.0 21.0 58 6.0 ENE 22 30 12 16 1013.3 - 0.0
22/12:00pm 30.2 31.7 21.2 58 6.0 ENE 15 22 8 12 1013.6 1013.5 0.0
22/11:30am 31.3 32.5 22.5 59 6.0 NE 20 30 11 16 1013.9 - 0.0
22/11:00am 30.6 31.2 21.4 58 6.2 ENE 20 30 11 16 1014.3 - 0.0
22/10:30am 29.9 31.3 21.9 62 5.4 NNE 17 28 9 15 1014.6 - 0.0
22/10:00am 30.4 31.1 21.6 59 5.9 NE 20 30 11 16 1014.8 - 0.0
22/09:30am 29.1 30.0 20.8 61 5.5 NE 17 24 9 13 1014.6 - 0.0
22/09:00am 28.6 30.6 20.7 62 5.2 NE 11 19 6 10 1014.5 1014.4 0.0
22/08:30am 29.2 32.6 24.0 73 3.6 NE 13 20 7 11 1014.2 - 0.0
22/08:00am 28.6 30.4 21.9 67 4.5 N 15 20 8 11 1014.0 - 0.0
22/07:30am 28.3 30.0 21.6 67 4.5 NNE 15 20 8 11 1013.8 - 0.0
22/07:00am 27.8 29.5 21.7 69 4.1 N 15 19 8 10 1013.9 - 0.0
22/06:30am 27.0 29.0 21.6 72 3.6 N 13 15 7 8 1013.8 - 0.0
22/06:00am 26.2 28.7 21.7 76 3.0 N 11 17 6 9 1013.5 1013.4 0.0
22/05:30am 25.5 27.1 21.4 78 2.7 NNE 15 19 8 10 1013.1 - 0.0
22/05:00am 25.3 27.2 21.4 79 2.6 NE 13 15 7 8 1013.1 - 0.0
22/04:30am 25.9 28.1 21.9 78 2.7 NNE 13 17 7 9 1012.8 - 0.0
22/04:00am 25.9 28.4 21.7 77 2.8 NNE 11 13 6 7 1012.6 - 0.0
22/03:30am 24.9 27.2 21.4 81 2.3 NNE 11 11 6 6 1012.3 - 0.0
22/03:00am 24.9 27.7 21.6 82 2.2 NNE 9 11 5 6 1012.2 1012.1 0.0
22/02:30am 25.4 27.8 21.5 79 2.6 N 11 13 6 7 1012.2 - 0.0
22/02:00am 25.4 27.8 21.5 79 2.6 N 11 15 6 8 1012.2 - 0.0
22/01:30am 25.6 27.9 21.4 77 2.8 N 11 13 6 7 1012.4 - 0.0
22/01:00am 25.9 27.7 21.2 75 3.1 N 13 15 7 8 1012.7 - 0.0
22/12:30am 25.9 28.3 21.5 76 2.9 N 11 15 6 8 1013.4 - 0.0
22/12:00am 25.9 27.8 21.4 76 3.0 NNE 13 17 7 9 1013.5 1013.4 0.0
 
Date/Time
EST
Temp
°C
App
Temp
°C
Dew
Point
Rel
Hum
%
Delta-T
°C
Wind Press
QNH
hPa
Press
MSL
hPa
Rain
since 9 am
mm
Dir
 
Spd
km/h
Gust
km/h
Spd
kts
Gust
kts
21/11:30pm 26.1 27.9 21.1 74 3.3 N 13 15 7 8 1013.4 - 0.0
21/11:00pm 25.9 27.8 21.4 76 3.0 NNE 13 19 7 10 1013.6 - 0.0
21/10:30pm 26.0 27.8 21.2 75 3.2 NNE 13 15 7 8 1013.8 - 0.0

Other Formats:

Comma delimited format used in spreadsheet applications
http://www.bom.gov.au/fwo/IDQ60801/IDQ60801.94294.axf

JavaScript Object Notation format (JSON) in row-major order
http://www.bom.gov.au/fwo/IDQ60801/IDQ60801.94294.json